Accueil
METAR-TAF:

METAR-TAF

Aéroports :

Aéroport international de Nội Bài

Hanoï, Viêtnam

latitude: 21-01N, longitude: 105-48E, altitude: 6 m

Observation

Le bulletin a été fait il y a 38 minutes, à 15:30 UTC
Vent 3 kt de est/nord-est, variant entre nord/nord-est et est
Température 19°C
Humidité 83%
Pression 1018 hPa
Visibilité: 7000 m

METAR: VVNB 211530Z 06003KT 020V100 7000 NSC 19/16 Q1018 NOSIG

Heure: 23:08 (16:08 UTC)

Prévision

Le bulletin a été fait il y a 5 heures et 8 minutes, à 11:00 UTC
Prévision valable du 21 à 12 UTC au 22 à 12 UTC
Vent 5 kt de nord/nord-est
Visibilité: 6000 m
Nuages épars à une hauteur de 2000 ft
Evoluant progressivement
du 21 à 20 UTC au 21 à 21 UTC
Visibilité: 3000 m
brume
Evoluant progressivement
du 22 à 01 UTC au 22 à 02 UTC
Visibilité: 8000 m

TAF: VVNB 211100Z 2112/2212 03005KT 6000 SCT020 BECMG 2120/2121 3000 BR BECMG 2201/2202 8000 NSW

Observations et prévisions météorologiques de plus de 4000 aéroports (messages METAR et TAF).

Les stations disponibles sont représentées par des disques jaunes et rouges sur la carte.

Passer la souris dessus pour voir le nom de la station.

Cliquer dessus pour voir les observations et prévisions météorologiques.

Pour changer de carte: cliquez sur les boutons verts avec une croix noire pour zoomer, sur le bouton vert avec un tiret pour effectuer un zoom arrière, ou sur les flèches vertes pour les cartes adjacentes.


METAR-TAF: